Time;durP1;ratioP1;P1;durP2;ratioP2;P2;SDS_P1;SDS_P2;PMS_P1;PMS_P2;Temp;Humidity;BMP_temperature;BMP_pressure;BME280_temperature;BME280_humidity;BME280_pressure;Samples;Min_cycle;Max_cycle;Signal;HPM_P1;HPM_P2
2022/07/12 00:02:05;;;;;;;3.00;2.58;;;17.00;99.90;;;;;;5055692;28;20045;-79
2022/07/12 00:04:31;;;;;;;3.38;2.67;;;16.90;99.90;;;;;;5054627;28;20052;-80
2022/07/12 00:06:58;;;;;;;2.80;2.50;;;16.90;99.90;;;;;;5052579;28;20127;-79
2022/07/12 00:09:23;;;;;;;3.28;2.63;;;16.90;99.90;;;;;;5054283;28;20101;-79
2022/07/12 00:11:49;;;;;;;3.28;2.50;;;16.90;99.90;;;;;;5052821;28;20033;-79
2022/07/12 00:14:15;;;;;;;2.85;2.33;;;16.90;99.90;;;;;;5051167;28;20060;-78
2022/07/12 00:16:40;;;;;;;5.88;2.38;;;16.90;99.90;;;;;;5050991;28;20037;-79
2022/07/12 00:19:06;;;;;;;3.38;2.80;;;16.90;99.90;;;;;;5053319;28;20043;-79
2022/07/12 00:21:32;;;;;;;4.10;2.50;;;16.90;99.90;;;;;;5051776;28;20044;-79
2022/07/12 00:23:58;;;;;;;2.72;2.20;;;16.80;99.90;;;;;;5048872;28;20060;-79
2022/07/12 00:26:24;;;;;;;3.13;2.67;;;16.80;99.90;;;;;;5028864;28;20069;-79
2022/07/12 00:28:49;;;;;;;3.22;2.20;;;16.90;99.90;;;;;;5051981;28;20040;-79
2022/07/12 00:31:15;;;;;;;3.67;2.50;;;16.90;99.90;;;;;;5052072;28;20116;-79
2022/07/12 00:33:41;;;;;;;3.58;2.20;;;16.90;99.90;;;;;;5051599;28;20074;-79
2022/07/12 00:36:07;;;;;;;3.65;2.78;;;16.90;99.90;;;;;;5051730;28;20052;-78
2022/07/12 00:38:33;;;;;;;2.80;2.47;;;16.80;99.90;;;;;;5052003;28;20686;-79
2022/07/12 00:40:58;;;;;;;2.75;2.40;;;16.80;99.90;;;;;;5032474;28;20124;-79
2022/07/12 00:43:24;;;;;;;3.00;2.70;;;16.80;99.90;;;;;;5046192;28;20057;-78
2022/07/12 00:45:51;;;;;;;2.55;2.35;;;16.80;99.90;;;;;;5043024;28;20514;-79
2022/07/12 00:48:18;;;;;;;3.90;2.40;;;16.70;99.90;;;;;;5053734;28;20037;-79
2022/07/12 00:50:47;;;;;;;3.45;2.75;;;16.70;99.90;;;;;;5048176;28;20103;-79
2022/07/12 00:53:14;;;;;;;2.58;2.13;;;16.70;99.90;;;;;;5045471;28;20087;-79
2022/07/12 00:55:40;;;;;;;3.22;2.80;;;16.70;99.90;;;;;;5050454;28;20072;-79
2022/07/12 00:58:06;;;;;;;4.38;2.70;;;16.70;99.90;;;;;;5052967;28;20033;-79
2022/07/12 01:00:31;;;;;;;3.95;3.20;;;16.70;99.90;;;;;;5055120;28;20033;-79
2022/07/12 01:02:59;;;;;;;3.55;3.00;;;16.60;99.90;;;;;;5053206;28;20044;-79
2022/07/12 01:05:27;;;;;;;3.65;2.53;;;16.70;99.90;;;;;;5038397;28;20045;-79
2022/07/12 01:07:54;;;;;;;3.10;2.60;;;16.60;99.90;;;;;;5051405;28;20040;-79
2022/07/12 01:10:20;;;;;;;2.60;2.40;;;16.60;99.90;;;;;;5051961;28;20086;-79
2022/07/12 01:12:46;;;;;;;2.63;2.42;;;16.50;99.90;;;;;;5051076;28;20119;-79
2022/07/12 01:15:12;;;;;;;3.25;2.95;;;16.60;99.90;;;;;;5050571;28;20048;-78
2022/07/12 01:17:39;;;;;;;3.33;2.83;;;16.60;99.90;;;;;;5051106;28;20411;-79
2022/07/12 01:20:06;;;;;;;3.83;2.95;;;16.60;99.90;;;;;;5051063;28;20517;-80
2022/07/12 01:22:34;;;;;;;3.78;3.15;;;16.60;99.90;;;;;;5050237;28;20124;-79
2022/07/12 01:25:00;;;;;;;3.45;3.15;;;16.60;99.90;;;;;;5042247;28;20056;-79
2022/07/12 01:27:27;;;;;;;3.55;3.10;;;16.50;99.90;;;;;;5051226;28;20048;-79
2022/07/12 01:29:52;;;;;;;3.30;2.95;;;16.50;99.90;;;;;;5050800;28;20100;-79
2022/07/12 01:32:24;;;;;;;3.78;3.20;;;16.50;99.90;;;;;;5036726;28;20119;-79
2022/07/12 01:35:10;;;;;;;3.65;3.35;;;16.40;99.90;;;;;;5030132;28;20076;-79
2022/07/12 01:37:37;;;;;;;3.50;3.20;;;16.40;99.90;;;;;;5031663;28;20045;-79
2022/07/12 01:40:05;;;;;;;3.63;3.33;;;16.40;99.90;;;;;;5032906;28;20042;-79
2022/07/12 01:42:31;;;;;;;3.42;2.97;;;16.30;99.90;;;;;;5034629;28;20052;-79
2022/07/12 01:44:57;;;;;;;3.90;3.50;;;16.30;99.90;;;;;;5030288;28;20127;-79
2022/07/12 01:47:24;;;;;;;3.78;3.38;;;16.20;99.90;;;;;;5040321;28;20047;-79
2022/07/12 01:49:50;;;;;;;4.28;3.22;;;16.30;99.90;;;;;;5041239;28;20041;-78
2022/07/12 01:52:17;;;;;;;4.47;3.28;;;16.30;99.90;;;;;;5062637;28;20385;-78
2022/07/12 01:54:43;;;;;;;4.07;3.22;;;16.30;99.90;;;;;;5044349;28;20415;-79
2022/07/12 01:57:09;;;;;;;3.78;3.38;;;16.30;99.90;;;;;;5029205;28;20148;-78
2022/07/12 01:59:35;;;;;;;3.83;3.40;;;16.10;99.90;;;;;;5046650;28;20086;-78
2022/07/12 02:02:02;;;;;;;4.20;3.80;;;16.20;99.90;;;;;;5044793;28;20072;-79
2022/07/12 02:04:28;;;;;;;4.30;3.75;;;16.10;99.90;;;;;;5045297;28;20042;-79
2022/07/12 02:06:55;;;;;;;6.13;3.70;;;16.10;99.90;;;;;;5044005;28;20111;-79
2022/07/12 02:09:20;;;;;;;4.40;4.00;;;16.10;99.90;;;;;;5027878;28;20047;-78
2022/07/12 02:11:49;;;;;;;4.28;3.88;;;16.10;99.90;;;;;;5026787;28;20036;-78
2022/07/12 02:14:15;;;;;;;4.10;3.70;;;16.20;99.90;;;;;;5043670;28;20126;-78
2022/07/12 02:16:42;;;;;;;3.72;3.42;;;16.00;99.90;;;;;;5043909;28;20048;-79
2022/07/12 02:19:08;;;;;;;5.07;3.85;;;16.00;99.90;;;;;;5041999;28;20075;-79
2022/07/12 02:21:34;;;;;;;3.83;3.45;;;16.00;99.90;;;;;;5025550;28;20147;-79
2022/07/12 02:24:00;;;;;;;4.88;4.38;;;16.10;99.90;;;;;;5043554;28;20048;-79
2022/07/12 02:26:26;;;;;;;4.88;4.25;;;16.10;99.90;;;;;;5042962;28;20110;-78
2022/07/12 02:28:52;;;;;;;4.70;4.28;;;16.00;99.90;;;;;;5041484;28;20471;-79
2022/07/12 02:31:18;;;;;;;5.18;4.68;;;16.10;99.90;;;;;;5027404;28;20037;-79
2022/07/12 02:33:43;;;;;;;7.57;5.18;;;16.00;99.90;;;;;;5027944;28;20029;-79
2022/07/12 02:36:09;;;;;;;7.03;5.20;;;15.90;99.90;;;;;;5045007;28;20101;-79
2022/07/12 02:38:35;;;;;;;7.82;6.20;;;16.00;99.90;;;;;;5049411;28;20045;-79
2022/07/12 02:41:01;;;;;;;7.90;6.70;;;15.90;99.90;;;;;;5046547;28;20506;-79
2022/07/12 02:43:28;;;;;;;8.80;7.03;;;15.80;99.90;;;;;;5048362;28;20171;-79
2022/07/12 02:46:06;;;;;;;8.20;6.53;;;15.80;99.90;;;;;;5045257;28;20052;-79
2022/07/12 02:48:32;;;;;;;7.97;6.28;;;15.90;99.90;;;;;;5046453;28;20081;-79
2022/07/12 02:50:59;;;;;;;9.50;6.72;;;15.90;99.90;;;;;;5046495;28;20060;-79
2022/07/12 02:53:24;;;;;;;9.35;7.90;;;15.90;99.90;;;;;;5048214;28;20103;-79
2022/07/12 02:55:50;;;;;;;8.52;7.05;;;15.90;99.90;;;;;;5045538;28;20609;-79
2022/07/12 02:58:15;;;;;;;10.88;7.57;;;15.90;99.90;;;;;;5047876;28;20094;-79
2022/07/12 03:00:43;;;;;;;7.80;7.00;;;15.80;99.90;;;;;;5049751;28;20078;-79
2022/07/12 03:03:08;;;;;;;8.75;7.30;;;15.80;99.90;;;;;;5046004;28;20041;-79
2022/07/12 03:05:35;;;;;;;7.40;6.22;;;15.80;99.90;;;;;;5048808;28;20513;-79
2022/07/12 03:08:02;;;;;;;6.97;6.28;;;15.80;99.90;;;;;;5047466;28;20041;-79
2022/07/12 03:10:27;;;;;;;7.93;5.90;;;15.80;99.90;;;;;;5049050;28;20037;-79
2022/07/12 03:12:53;;;;;;;52.85;7.20;;;15.80;99.90;;;;;;5031747;28;20064;-80
2022/07/12 03:15:19;;;;;;;29.10;5.32;;;15.70;99.90;;;;;;5046201;28;20118;-79
2022/07/12 03:17:44;;;;;;;7.25;5.13;;;15.50;99.90;;;;;;5029760;28;20463;-79
2022/07/12 03:20:11;;;;;;;21.60;5.75;;;15.50;99.90;;;;;;5031325;28;20067;-79
2022/07/12 03:22:37;;;;;;;4.85;4.35;;;15.50;99.90;;;;;;5049926;28;20135;-79
2022/07/12 03:25:04;;;;;;;16.42;5.20;;;15.50;99.90;;;;;;5045982;28;20048;-79
2022/07/12 03:27:31;;;;;;;38.65;5.47;;;15.50;99.90;;;;;;5048039;28;20483;-79
2022/07/12 03:29:57;;;;;;;38.38;5.40;;;15.50;99.90;;;;;;5045327;28;20108;-79
2022/07/12 03:32:23;;;;;;;6.75;4.28;;;15.40;99.90;;;;;;5048752;28;20069;-79
2022/07/12 03:34:48;;;;;;;19.85;5.25;;;15.50;99.90;;;;;;5046182;28;20025;-79
2022/07/12 03:37:14;;;;;;;23.88;5.30;;;15.50;99.90;;;;;;5046580;28;20051;-79
2022/07/12 03:39:39;;;;;;;59.30;6.63;;;15.50;99.90;;;;;;5050565;28;20051;-79
2022/07/12 03:42:05;;;;;;;8.70;5.20;;;15.50;99.90;;;;;;5045866;28;20038;-79
2022/07/12 03:44:30;;;;;;;24.98;5.47;;;15.40;99.90;;;;;;5046350;28;20036;-79
2022/07/12 03:46:56;;;;;;;10.60;5.43;;;15.30;99.90;;;;;;5045915;28;20491;-79
2022/07/12 03:49:22;;;;;;;7.25;4.85;;;15.50;99.90;;;;;;5048336;28;20065;-79
2022/07/12 03:51:47;;;;;;;48.92;6.55;;;15.50;99.90;;;;;;5046620;28;20029;-79
2022/07/12 03:54:13;;;;;;;13.45;5.60;;;15.50;99.90;;;;;;5045328;28;20103;-79
2022/07/12 03:59:23;;;;;;;38.72;5.50;;;15.30;99.90;;;;;;5046946;28;20099;-79
2022/07/12 04:01:49;;;;;;;38.45;4.70;;;15.40;99.90;;;;;;5049992;28;20041;-79
2022/07/12 04:04:14;;;;;;;7.55;4.60;;;15.40;99.90;;;;;;5046483;28;20036;-79
2022/07/12 04:06:40;;;;;;;25.27;5.20;;;15.30;99.90;;;;;;5045112;28;20041;-79
2022/07/12 04:09:06;;;;;;;58.33;5.70;;;15.40;99.90;;;;;;5045180;28;20477;-79
2022/07/12 04:11:32;;;;;;;38.60;5.40;;;15.30;99.90;;;;;;5046309;28;20476;-79
2022/07/12 04:13:58;;;;;;;24.90;4.88;;;15.30;99.90;;;;;;5047677;28;20037;-79
2022/07/12 04:16:23;;;;;;;5.60;4.57;;;15.20;99.90;;;;;;5045677;28;20091;-79
2022/07/12 04:18:49;;;;;;;15.23;4.85;;;15.30;99.90;;;;;;5046193;28;20036;-79
2022/07/12 04:21:15;;;;;;;98.00;7.85;;;15.30;99.90;;;;;;5045914;28;20090;-79
2022/07/12 04:23:41;;;;;;;27.27;5.45;;;15.30;99.90;;;;;;5046590;28;20037;-79
2022/07/12 04:26:06;;;;;;;16.17;5.40;;;15.30;99.90;;;;;;5045001;28;21012;-79
2022/07/12 04:28:32;;;;;;;51.10;6.40;;;15.40;99.90;;;;;;5047100;28;20032;-79
2022/07/12 04:30:57;;;;;;;11.57;5.55;;;15.50;99.90;;;;;;5045758;28;20037;-80
2022/07/12 04:33:23;;;;;;;13.45;5.00;;;15.50;99.90;;;;;;5047912;28;20065;-79
2022/07/12 04:35:48;;;;;;;37.42;5.07;;;15.50;99.90;;;;;;5045845;28;20040;-79
2022/07/12 04:38:14;;;;;;;19.80;4.75;;;15.50;99.90;;;;;;5045820;28;20040;-79
2022/07/12 04:40:40;;;;;;;15.02;5.00;;;15.40;99.90;;;;;;5045812;28;20423;-79
2022/07/12 04:43:05;;;;;;;52.45;5.97;;;15.50;99.90;;;;;;5048444;28;20025;-79
2022/07/12 04:45:31;;;;;;;26.52;5.45;;;15.50;99.90;;;;;;5059205;28;20026;-79
2022/07/12 04:47:57;;;;;;;15.60;5.03;;;15.50;99.90;;;;;;5045402;28;20131;-79
2022/07/12 04:50:22;;;;;;;27.60;5.30;;;15.60;99.90;;;;;;5044126;28;20643;-79
2022/07/12 04:52:48;;;;;;;38.92;6.45;;;15.60;99.90;;;;;;5044681;28;20128;-79
2022/07/12 04:55:13;;;;;;;8.32;5.55;;;15.70;99.90;;;;;;5045707;28;20513;-79
2022/07/12 04:57:39;;;;;;;6.05;4.43;;;15.70;99.90;;;;;;5045408;28;20041;-79
2022/07/12 05:00:06;;;;;;;8.07;4.47;;;15.70;99.90;;;;;;5045691;28;20121;-79
2022/07/12 05:02:32;;;;;;;18.23;4.50;;;15.70;99.90;;;;;;5044127;28;20120;-79
2022/07/12 05:04:58;;;;;;;80.85;6.10;;;15.70;99.90;;;;;;5045726;28;20128;-79
2022/07/12 05:07:23;;;;;;;52.40;5.43;;;15.60;99.90;;;;;;5043691;28;20037;-79
2022/07/12 05:09:49;;;;;;;10.55;4.32;;;15.50;99.90;;;;;;5042322;28;20040;-79
2022/07/12 05:12:14;;;;;;;35.42;5.30;;;15.50;99.90;;;;;;5045620;28;20033;-79
2022/07/12 05:14:40;;;;;;;20.45;5.05;;;15.40;99.90;;;;;;5027315;28;20041;-80
2022/07/12 05:17:05;;;;;;;24.63;4.82;;;15.40;99.90;;;;;;5045276;28;20127;-79
2022/07/12 05:19:31;;;;;;;30.48;5.40;;;15.50;99.90;;;;;;5045726;28;20064;-79
2022/07/12 05:21:56;;;;;;;9.57;4.78;;;15.50;99.90;;;;;;5043131;28;20618;-79
2022/07/12 05:24:22;;;;;;;17.73;5.28;;;15.60;99.90;;;;;;5043434;28;20037;-80
2022/07/12 05:26:48;;;;;;;17.95;4.68;;;15.70;99.90;;;;;;5044246;28;20043;-79
2022/07/12 05:29:14;;;;;;;13.35;4.80;;;15.70;99.90;;;;;;5059828;28;20120;-79
2022/07/12 05:31:39;;;;;;;8.40;4.40;;;15.70;99.90;;;;;;5029204;28;20043;-80
2022/07/12 05:34:05;;;;;;;7.50;4.65;;;15.80;99.90;;;;;;5043117;28;20097;-79
2022/07/12 05:36:30;;;;;;;5.88;4.80;;;15.80;99.90;;;;;;5043190;28;20049;-80
2022/07/12 05:38:56;;;;;;;6.40;5.60;;;15.90;99.90;;;;;;5044713;28;20041;-79
2022/07/12 05:41:21;;;;;;;6.30;4.80;;;16.00;99.90;;;;;;5046241;28;20387;-79
2022/07/12 05:43:47;;;;;;;7.60;4.85;;;16.20;99.90;;;;;;5045970;28;20486;-80
2022/07/12 05:46:12;;;;;;;6.50;5.43;;;16.10;99.90;;;;;;5046733;28;20048;-79
2022/07/12 05:48:39;;;;;;;5.82;4.97;;;16.20;99.90;;;;;;5032356;28;20069;-79
2022/07/12 05:53:49;;;;;;;4.80;4.30;;;16.30;99.90;;;;;;5053318;28;20037;-80
2022/07/12 05:56:14;;;;;;;6.35;4.57;;;16.40;99.90;;;;;;5050337;28;20045;-80
2022/07/12 05:58:40;;;;;;;5.43;4.45;;;16.40;99.90;;;;;;5051444;28;20048;-80
2022/07/12 06:01:06;;;;;;;5.50;4.53;;;16.50;99.90;;;;;;5044116;28;20049;-79
2022/07/12 06:03:32;;;;;;;6.63;4.88;;;16.40;99.90;;;;;;5044782;28;20048;-80
2022/07/12 06:05:58;;;;;;;5.10;4.40;;;16.50;99.90;;;;;;5042349;28;20651;-80
2022/07/12 06:08:23;;;;;;;6.80;4.65;;;16.50;99.90;;;;;;5046731;28;20033;-80
2022/07/12 06:10:49;;;;;;;5.30;4.32;;;16.50;99.90;;;;;;5046240;28;20059;-80
2022/07/12 06:13:15;;;;;;;5.50;4.40;;;16.60;99.90;;;;;;5043549;28;20036;-80
2022/07/12 06:15:40;;;;;;;5.35;4.22;;;16.70;99.90;;;;;;5042919;28;20029;-80
2022/07/12 06:18:06;;;;;;;4.60;3.92;;;16.80;99.90;;;;;;5043678;28;20064;-80
2022/07/12 06:20:32;;;;;;;4.90;3.80;;;16.80;99.90;;;;;;5046503;28;20037;-79
2022/07/12 06:22:57;;;;;;;5.55;3.83;;;16.80;99.90;;;;;;5041992;28;20041;-80
2022/07/12 06:25:23;;;;;;;6.88;3.78;;;16.90;99.90;;;;;;5043873;28;20101;-79
2022/07/12 06:27:50;;;;;;;4.78;3.75;;;16.90;99.90;;;;;;5044140;28;20041;-79
2022/07/12 06:30:17;;;;;;;3.88;3.47;;;16.80;99.90;;;;;;5044929;28;20066;-79
2022/07/12 06:32:47;;;;;;;4.00;3.60;;;17.00;99.90;;;;;;5027311;28;20029;-79
2022/07/12 06:35:14;;;;;;;4.07;3.55;;;17.00;99.90;;;;;;5043969;28;20383;-79
2022/07/12 06:37:40;;;;;;;4.07;3.30;;;17.00;99.90;;;;;;5045021;28;20075;-79
2022/07/12 06:40:06;;;;;;;5.07;3.63;;;17.10;99.90;;;;;;5043241;28;20044;-79
2022/07/12 06:42:32;;;;;;;5.57;3.25;;;17.20;99.90;;;;;;5040550;28;20037;-80
2022/07/12 06:44:58;;;;;;;3.85;3.42;;;17.30;99.90;;;;;;5045051;28;20041;-79
2022/07/12 06:47:23;;;;;;;4.10;3.60;;;17.40;99.90;;;;;;5045568;28;20037;-80
2022/07/12 06:49:49;;;;;;;4.07;3.00;;;17.60;99.90;;;;;;5045359;28;20044;-80
2022/07/12 06:52:14;;;;;;;4.57;3.17;;;17.70;99.90;;;;;;5044174;28;21800;-81
2022/07/12 06:54:40;;;;;;;7.28;3.30;;;17.80;99.90;;;;;;5044602;28;20037;-80
2022/07/12 06:57:06;;;;;;;6.13;3.58;;;18.00;99.90;;;;;;5028406;28;20090;-80
2022/07/12 06:59:32;;;;;;;5.05;3.22;;;18.00;99.90;;;;;;5044892;28;20124;-80
2022/07/12 07:01:57;;;;;;;6.32;3.00;;;18.10;99.90;;;;;;5042530;28;20128;-80
2022/07/12 07:04:23;;;;;;;4.70;3.00;;;18.30;99.90;;;;;;5034900;28;20123;-80
2022/07/12 07:06:49;;;;;;;3.50;2.95;;;18.60;99.90;;;;;;5044112;28;20127;-80
2022/07/12 07:09:15;;;;;;;3.75;2.97;;;18.90;99.90;;;;;;5046958;28;20554;-80
2022/07/12 07:11:41;;;;;;;5.13;2.83;;;19.10;99.90;;;;;;5041820;28;20478;-80
2022/07/12 07:14:06;;;;;;;8.98;2.90;;;19.30;99.90;;;;;;5043341;28;20047;-82
2022/07/12 07:16:32;;;;;;;6.50;3.03;;;19.60;99.90;;;;;;5040676;28;20051;-82
2022/07/12 07:18:58;;;;;;;4.07;2.60;;;19.90;99.90;;;;;;5048468;28;20107;-81
2022/07/12 07:21:24;;;;;;;3.65;2.55;;;20.20;99.90;;;;;;5034685;28;20132;-81
2022/07/12 07:23:50;;;;;;;3.72;2.92;;;20.10;99.90;;;;;;5046465;28;20037;-82
2022/07/12 07:26:16;;;;;;;5.30;2.80;;;20.10;99.90;;;;;;5034364;28;20043;-82
2022/07/12 07:31:25;;;;;;;;;;;20.50;99.90;;;;;;5052015;28;20049;-82
2022/07/12 07:33:51;;;;;;;3.00;2.40;;;20.60;99.90;;;;;;5033120;28;19917;-82
2022/07/12 07:36:16;;;;;;;3.88;2.45;;;20.70;99.90;;;;;;5033898;28;20411;-82
2022/07/12 07:38:42;;;;;;;3.03;2.28;;;20.80;99.90;;;;;;5034626;28;20052;-83
2022/07/12 07:41:07;;;;;;;2.60;2.40;;;21.00;99.90;;;;;;5033556;28;20042;-81
2022/07/12 07:43:33;;;;;;;3.00;2.08;;;21.20;99.90;;;;;;5035273;28;20029;-83
2022/07/12 07:45:59;;;;;;;3.85;2.40;;;21.30;99.90;;;;;;5033001;28;20132;-82
2022/07/12 07:48:24;;;;;;;3.20;2.15;;;21.30;99.90;;;;;;5034182;28;20033;-82
2022/07/12 07:50:50;;;;;;;3.70;2.25;;;21.50;99.90;;;;;;5034393;28;20045;-82
2022/07/12 07:53:15;;;;;;;2.70;2.50;;;21.50;99.90;;;;;;5033904;28;20115;-83
2022/07/12 07:55:41;;;;;;;4.78;2.58;;;21.90;99.90;;;;;;5033380;28;20036;-83
2022/07/12 07:58:07;;;;;;;3.17;2.08;;;21.80;99.90;;;;;;5034173;28;20432;-82
2022/07/12 08:00:32;;;;;;;3.50;2.22;;;21.90;99.90;;;;;;5033294;28;20041;-84
2022/07/12 08:02:58;;;;;;;4.03;2.60;;;22.10;99.90;;;;;;5033898;28;20513;-83
2022/07/12 08:05:24;;;;;;;3.55;2.30;;;21.90;99.90;;;;;;5032425;28;20103;-82
2022/07/12 08:07:49;;;;;;;2.70;1.83;;;21.90;99.90;;;;;;5050972;28;20049;-84
2022/07/12 08:10:15;;;;;;;4.82;2.17;;;22.10;99.90;;;;;;5043845;28;20040;-83
2022/07/12 08:12:41;;;;;;;5.20;2.25;;;22.20;99.90;;;;;;5033863;28;20124;-84
2022/07/12 08:15:07;;;;;;;2.97;2.50;;;22.20;99.90;;;;;;5032237;28;20037;-83
2022/07/12 08:17:32;;;;;;;3.42;2.60;;;22.00;99.90;;;;;;5032666;28;20392;-82
2022/07/12 08:19:58;;;;;;;5.63;2.42;;;22.00;99.90;;;;;;5032638;28;20037;-82
2022/07/12 08:22:24;;;;;;;6.07;2.10;;;22.00;99.90;;;;;;5032501;28;20092;-84
2022/07/12 08:24:49;;;;;;;4.88;2.08;;;21.80;99.90;;;;;;5031835;28;20045;-83
2022/07/12 08:27:16;;;;;;;2.55;2.35;;;21.80;99.90;;;;;;5032594;28;20037;-82
2022/07/12 08:29:41;;;;;;;4.60;2.25;;;21.80;99.90;;;;;;5032083;28;20037;-82
2022/07/12 08:32:07;;;;;;;5.90;2.20;;;21.90;99.90;;;;;;5031557;28;20411;-82
2022/07/12 08:34:33;;;;;;;11.07;2.90;;;21.90;99.90;;;;;;5030762;28;20033;-82
2022/07/12 08:36:59;;;;;;;5.28;2.53;;;22.00;99.90;;;;;;5025125;28;20033;-83
2022/07/12 08:39:25;;;;;;;4.40;2.20;;;22.00;99.90;;;;;;5052525;28;20519;-82
2022/07/12 08:41:50;;;;;;;3.17;2.25;;;22.00;99.90;;;;;;5023921;28;20068;-82
2022/07/12 08:44:16;;;;;;;3.00;2.00;;;22.10;99.90;;;;;;5030676;28;20041;-83
2022/07/12 08:46:42;;;;;;;6.13;2.50;;;22.10;99.90;;;;;;5036973;28;20044;-82
2022/07/12 08:49:07;;;;;;;2.80;2.30;;;22.10;99.90;;;;;;5048610;28;20044;-82
2022/07/12 08:51:33;;;;;;;2.50;2.30;;;22.30;99.90;;;;;;5052241;28;20037;-83
2022/07/12 08:54:10;;;;;;;4.55;2.53;;;22.30;99.90;;;;;;5047826;28;20043;-82
2022/07/12 08:56:43;;;;;;;6.88;2.40;;;22.30;99.90;;;;;;5048869;28;20437;-85
2022/07/12 08:59:14;;;;;;;3.85;2.42;;;22.40;99.90;;;;;;5030402;28;20500;-84
2022/07/12 09:01:51;;;;;;;3.22;2.00;;;22.50;99.90;;;;;;5048315;28;20049;-84
2022/07/12 09:04:23;;;;;;;2.60;2.30;;;22.60;99.90;;;;;;5044136;28;20037;-84
2022/07/12 09:06:49;;;;;;;3.35;2.10;;;22.70;99.90;;;;;;5035219;28;20038;-83
2022/07/12 09:09:32;;;;;;;2.80;2.22;;;22.80;99.90;;;;;;5022877;28;20419;-84
2022/07/12 09:11:58;;;;;;;4.03;2.20;;;22.90;99.90;;;;;;5062836;28;20040;-83
2022/07/12 09:14:26;;;;;;;4.43;2.30;;;23.00;99.90;;;;;;5041277;28;20098;-82
2022/07/12 09:17:09;;;;;;;3.88;2.20;;;23.00;99.90;;;;;;5049914;28;20040;-83
2022/07/12 09:19:36;;;;;;;3.63;2.40;;;23.00;99.90;;;;;;5045795;28;20516;-84
2022/07/12 09:22:03;;;;;;;3.17;2.25;;;23.20;99.90;;;;;;5032651;28;20045;-85
2022/07/12 09:24:29;;;;;;;4.25;2.08;;;23.30;99.90;;;;;;5025115;28;20109;-84
2022/07/12 09:27:02;;;;;;;3.20;2.33;;;23.40;99.90;;;;;;5044400;28;20053;-83
2022/07/12 09:29:28;;;;;;;3.00;2.15;;;23.40;99.90;;;;;;5047969;28;20041;-85
2022/07/12 09:37:26;;;;;;;4.28;2.33;;;23.50;99.90;;;;;;5048049;28;20042;-84
2022/07/12 09:39:53;;;;;;;3.35;2.30;;;23.50;99.90;;;;;;5049583;28;20057;-83
2022/07/12 09:42:19;;;;;;;2.63;1.80;;;23.50;99.90;;;;;;5033598;28;20053;-83
2022/07/12 09:44:45;;;;;;;3.70;2.22;;;23.50;99.90;;;;;;5023070;28;20056;-83
2022/07/12 09:47:13;;;;;;;3.20;2.53;;;23.60;99.90;;;;;;5046973;28;20128;-84
2022/07/12 09:49:47;;;;;;;3.83;1.90;;;23.80;99.90;;;;;;5044262;28;20531;-85
2022/07/12 09:52:22;;;;;;;2.05;1.83;;;23.80;99.90;;;;;;5047133;28;20036;-85
2022/07/12 09:54:52;;;;;;;3.88;2.42;;;23.80;99.90;;;;;;5035320;28;20029;-85
2022/07/12 09:57:30;;;;;;;3.95;1.90;;;23.90;99.90;;;;;;5042772;28;20037;-84
2022/07/12 09:59:57;;;;;;;4.57;2.00;;;23.90;99.90;;;;;;5030367;28;20056;-84
2022/07/12 10:02:23;;;;;;;6.93;2.35;;;24.00;99.90;;;;;;5045305;28;20083;-86
2022/07/12 10:04:50;;;;;;;2.40;1.80;;;24.10;99.90;;;;;;5044818;28;20037;-85
2022/07/12 10:07:16;;;;;;;4.65;1.73;;;24.30;99.90;;;;;;5060943;28;20072;-83
2022/07/12 10:09:52;;;;;;;3.53;1.80;;;24.40;99.90;;;;;;5048366;28;20048;-85
2022/07/12 10:12:19;;;;;;;2.17;1.40;;;24.50;99.90;;;;;;5048174;28;20033;-85
2022/07/12 10:14:46;;;;;;;2.70;1.02;;;24.60;99.90;;;;;;5047989;28;20040;-85
2022/07/12 10:17:13;;;;;;;2.17;1.50;;;24.80;99.90;;;;;;5044511;28;20670;-85
2022/07/12 10:19:39;;;;;;;5.22;1.67;;;25.00;99.90;;;;;;5032355;28;20051;-84
2022/07/12 10:22:06;;;;;;;1.95;1.75;;;25.10;99.90;;;;;;5044348;28;20739;-84
2022/07/12 10:24:32;;;;;;;1.83;1.60;;;25.20;99.90;;;;;;5027000;28;20662;-85
2022/07/12 10:27:13;;;;;;;3.00;1.10;;;25.20;99.90;;;;;;5041956;28;20068;-85
2022/07/12 10:29:40;;;;;;;1.52;1.10;;;25.30;99.90;;;;;;5047441;28;20044;-85
2022/07/12 10:32:26;;;;;;;3.22;1.17;;;25.40;99.90;;;;;;5040273;28;20037;-85
2022/07/12 10:34:58;;;;;;;3.17;1.10;;;25.40;99.90;;;;;;5040925;28;20083;-86
2022/07/12 10:37:24;;;;;;;4.30;1.10;;;25.50;99.90;;;;;;5045641;28;20072;-86
2022/07/12 10:40:19;;;;;;;1.85;1.15;;;25.50;99.90;;;;;;5039287;28;20064;-86
2022/07/12 10:43:07;;;;;;;1.30;1.00;;;25.60;99.90;;;;;;5038761;28;20095;-85
2022/07/12 10:45:38;;;;;;;5.13;1.30;;;25.70;99.90;;;;;;5040354;28;20037;-86
2022/07/12 10:48:23;;;;;;;2.53;1.30;;;25.70;99.90;;;;;;5037571;28;20080;-86
2022/07/12 10:50:57;;;;;;;3.22;1.15;;;25.90;99.90;;;;;;5025514;28;20033;-85
2022/07/12 10:53:29;;;;;;;2.67;1.00;;;25.90;99.90;;;;;;5042023;28;20037;-85
2022/07/12 10:56:04;;;;;;;3.25;1.25;;;26.10;99.90;;;;;;5026615;28;20036;-85
2022/07/12 10:58:34;;;;;;;2.20;1.10;;;26.20;99.90;;;;;;5040688;28;20415;-86
2022/07/12 11:01:02;;;;;;;4.05;1.10;;;26.20;99.90;;;;;;5052473;28;20037;-85
2022/07/12 11:03:54;;;;;;;2.88;1.50;;;26.30;99.90;;;;;;5050591;28;20037;-86
2022/07/12 11:06:21;;;;;;;2.92;1.10;;;26.20;99.90;;;;;;5049526;28;20059;-85
2022/07/12 11:08:51;;;;;;;2.35;0.90;;;26.20;99.90;;;;;;5052491;28;20040;-85
2022/07/12 11:11:18;;;;;;;4.15;1.10;;;26.20;99.90;;;;;;5020558;28;20037;-84
2022/07/12 11:13:44;;;;;;;2.17;1.00;;;26.20;99.90;;;;;;5032994;28;20056;-86
2022/07/12 11:16:10;;;;;;;2.40;0.98;;;26.30;99.90;;;;;;5046068;28;20029;-86
2022/07/12 11:18:36;;;;;;;2.65;1.00;;;26.40;99.90;;;;;;5034270;28;20041;-86
2022/07/12 11:21:03;;;;;;;1.73;0.85;;;26.60;99.90;;;;;;5048138;28;20064;-85
2022/07/12 11:23:29;;;;;;;2.13;1.40;;;26.70;99.90;;;;;;5047193;28;20478;-85
2022/07/12 11:25:56;;;;;;;1.73;1.30;;;26.60;99.90;;;;;;5024754;28;20093;-86
2022/07/12 11:28:24;;;;;;;1.92;1.30;;;26.50;99.90;;;;;;5051954;28;20064;-85
2022/07/12 11:30:54;;;;;;;4.03;1.40;;;26.50;99.90;;;;;;5045650;28;20036;-87
2022/07/12 11:33:25;;;;;;;5.68;1.50;;;26.50;99.90;;;;;;5052283;28;20507;-86
2022/07/12 11:35:51;;;;;;;2.40;1.25;;;26.70;99.90;;;;;;5040608;28;20061;-86
2022/07/12 11:38:24;;;;;;;1.20;1.00;;;26.90;99.90;;;;;;5033144;28;20041;-86
2022/07/12 11:40:56;;;;;;;6.28;1.20;;;27.10;99.90;;;;;;5023083;28;20033;-86
2022/07/12 11:43:22;;;;;;;1.25;0.80;;;27.00;99.90;;;;;;5034562;28;20040;-85
2022/07/12 11:45:48;;;;;;;1.48;0.70;;;27.10;99.90;;;;;;5027917;28;20029;-85
2022/07/12 11:48:14;;;;;;;2.25;1.00;;;27.30;99.90;;;;;;5050136;28;20490;-85
2022/07/12 11:50:42;;;;;;;4.00;1.00;;;27.60;99.90;;;;;;5044485;28;20052;-84
2022/07/12 11:53:15;;;;;;;2.00;0.70;;;27.80;99.90;;;;;;5047176;28;20072;-85
2022/07/12 11:55:43;;;;;;;2.08;0.98;;;28.00;99.90;;;;;;5042828;28;20116;-84
2022/07/12 11:58:09;;;;;;;0.93;0.65;;;28.20;99.90;;;;;;5047886;28;20545;-84
2022/07/12 12:00:34;;;;;;;1.90;0.70;;;28.40;99.90;;;;;;5020911;28;20045;-84
2022/07/12 12:03:01;;;;;;;2.53;0.73;;;28.50;99.90;;;;;;5016448;28;20052;-84
2022/07/12 12:05:26;;;;;;;0.98;0.70;;;28.60;99.90;;;;;;5014918;28;20050;-84
2022/07/12 12:07:52;;;;;;;4.72;1.00;;;28.50;99.90;;;;;;5032492;28;20057;-84
2022/07/12 12:10:18;;;;;;;0.90;0.70;;;28.50;99.90;;;;;;5033553;28;20041;-82
2022/07/12 12:12:47;;;;;;;1.38;0.80;;;28.70;99.90;;;;;;5034006;28;20037;-82
2022/07/12 12:15:18;;;;;;;6.03;0.82;;;28.80;99.90;;;;;;5033641;28;20045;-82
2022/07/12 12:17:52;;;;;;;1.23;0.70;;;28.80;99.90;;;;;;5034322;28;20399;-82
2022/07/12 12:20:20;;;;;;;2.55;0.80;;;29.00;99.90;;;;;;5033676;28;20495;-83
2022/07/12 12:22:47;;;;;;;1.02;0.60;;;29.00;99.90;;;;;;5033514;28;20048;-83
2022/07/12 12:25:14;;;;;;;1.00;0.80;;;29.20;99.90;;;;;;5033660;28;20392;-83
2022/07/12 12:27:48;;;;;;;1.10;0.90;;;29.40;99.80;;;;;;5034312;28;20033;-82
2022/07/12 12:30:15;;;;;;;1.27;0.80;;;29.50;98.90;;;;;;5033641;28;20045;-82
2022/07/12 12:32:50;;;;;;;2.38;0.70;;;29.60;98.80;;;;;;5015726;28;20037;-83
2022/07/12 12:35:18;;;;;;;2.63;0.70;;;29.70;99.10;;;;;;5031772;28;20038;-83
2022/07/12 12:37:51;;;;;;;1.00;0.60;;;29.90;98.50;;;;;;5031316;28;20044;-83
2022/07/12 12:40:27;;;;;;;2.75;0.77;;;30.10;98.60;;;;;;5032691;28;20049;-83
2022/07/12 12:43:12;;;;;;;1.33;0.50;;;29.90;97.30;;;;;;5031654;28;20052;-83
2022/07/12 12:45:56;;;;;;;1.27;0.60;;;29.60;97.80;;;;;;5032205;28;20037;-84
2022/07/12 12:48:23;;;;;;;2.67;0.88;;;29.80;98.30;;;;;;5015587;28;20132;-83
2022/07/12 12:50:52;;;;;;;1.95;1.45;;;29.80;98.00;;;;;;5016303;28;20037;-82
2022/07/12 12:53:23;;;;;;;2.22;0.80;;;29.70;97.70;;;;;;5035766;28;20533;-83
2022/07/12 12:55:50;;;;;;;2.22;1.20;;;29.50;98.00;;;;;;5037617;28;20063;-82
2022/07/12 12:58:18;;;;;;;1.05;0.90;;;29.60;98.40;;;;;;5053533;28;20055;-82
2022/07/12 13:00:45;;;;;;;2.47;1.00;;;29.60;97.40;;;;;;5039821;28;20041;-84